LEZGLEPP

Guest
Details From LEZG - Zaragoza Ab
To LEPP - Pamplona
Flight Number -
Tags Generated
Created
Modified
Stats Distance 72 nm / 133 km
Max Altitude 0 ft / 0 m
Waypoints 2
Social Downloads 0
Likes 0
Share VATSIM

Download

Looking for another format? Having issues loading an existing format? Contact us
Advertisement - Login to hide

Notes

Generated

Route

LEZG LEPP

ID Type Via Altitude Latitude Longitude Leg Dist Tot Dist Heading (true) Name
O LEZG APT - 0 ft / 0 m 41.66906˚ -1.03983˚ - 0 nm - Zaragoza AB
O LEPP APT - 0 ft / 0 m 42.77954˚ -1.65325˚ 72 nm 72 nm 338° / 338° -

Altitude Profile

Advertisement - Login to hide

LEZG

Details ICAO LEZG (ZAZ)
Name Zaragoza AB
Region Spain
Timezone Europe/Madrid (UTC+1.0)
Stats Elevation 862 ft / 263 m (AMSL)
Location 41.667030° -1.043559°
Runways 2
Magnetic Variation 0.012° W

METAR

LEZG 130600Z 10003KT 060V120 CAVOK 00/M01 Q1024

Decode

TAF

TAF TAF LEZG 130500Z 1306/1406 24010KT 9999 SCT060 TX14/1313Z TNM00/1307Z PROB40 TEMPO 1306/1310 VRB04KT PROB40 TEMPO 1310/1406 25015G25KT

Decode

Departure Runways

ID Width Length Bearing (true) Bearing (mag) Surface Threshold Offset Overrun Length
12L 148 ft / 45 m 9,934 ft / 3,028 m 120.12° 120.13° Asphalt 0 ft / 0 m 984 ft / 300 m
12R 148 ft / 45 m 12,181 ft / 3,713 m 120.10° 120.11° Asphalt 0 ft / 0 m 984 ft / 300 m
30L 148 ft / 45 m 12,181 ft / 3,713 m 300.12° 300.13° Asphalt 0 ft / 0 m 984 ft / 300 m
30R 148 ft / 45 m 9,934 ft / 3,028 m 300.14° 300.15° Asphalt 0 ft / 0 m 607 ft / 185 m

LEPP

Details ICAO LEPP (PNA)
Name Pamplona
Region Spain
Timezone Europe/Madrid (UTC+1.0)
Stats Elevation 1,503 ft / 458 m (AMSL)
Location 42.770831° -1.646876°
Runways 2
Magnetic Variation 0.228° W

METAR

LEPP 130600Z 00000KT CAVOK M01/M01 Q1023

Decode

TAF

TAF LEPP 130200Z 1303/1403 VRB04KT 9999 FEW050 TX10/1315Z TNM01/1305Z PROB40 TEMPO 1309/1321 16010KT PROB40 TEMPO 1318/1403 RA TEMPO 1400/1403 BKN014

Decode

Destination Runways

ID Width Length Bearing (true) Bearing (mag) Surface Threshold Offset Overrun Length
15 148 ft / 45 m 7,192 ft / 2,192 m 151.64° 151.87° Asphalt 0 ft / 0 m 0 ft / 0 m
16 148 ft / 45 m 7,245 ft / 2,208 m 151.86° 152.09° Asphalt 0 ft / 0 m 0 ft / 0 m
33 148 ft / 45 m 7,192 ft / 2,192 m 331.65° 331.88° Asphalt 984 ft / 300 m 656 ft / 200 m
34 148 ft / 45 m 7,245 ft / 2,208 m 331.86° 332.09° Asphalt 984 ft / 300 m 0 ft / 0 m

Approach Navaids

Runway Type Ident Frequency Range Bearing (true) Bearing (mag) Slope Elevation
16 Localiser IPN 109.70 MHz 18 nm / 33 km 151.86° 152.09° - 1,503 ft / 458 m (AMSL)
16 Glidescope IPN 109.70 MHz 10 nm / 19 km 151.86° 152.09° 3.40° 1,503 ft / 458 m (AMSL)
16 DME IPN 109.70 MHz 18 nm / 33 km - - - 1,470 ft / 448 m (AMSL)

Popular Alternatives